Hazard, California
Current Conditions -  °F | °C
As of 4:47 PM on Saturday 25 Oct 2014 (Local Time) from KCQT Reporting Station
Clear Clear  
Wind Chill: 75°   Ceiling: Unl
Heat Index: 75°   Visibility: 10mi
Dew Point: 53°   Wind: 3mph
Humidity: 46%   Direction: NA
Pressure: 29.99"   Gusts: NA
Location:  34.0453°N, 118.185°W
Report Text: KCQT 252347Z AUTO VRB03KT 10SM CLR 24/12 A2999 RMK AO2 SLP152 T02390117 10267 20239 58008
Loading
Personal Weather Stations






























Interactive Weather Map
Tropical Storm Tracking
New forecast layout! Learn more

10-Day Weather Forecast

Advertisements
Track Severe Weather on mobile